Time;durP1;ratioP1;P1;durP2;ratioP2;P2;SDS_P1;SDS_P2;PMS_P1;PMS_P2;Temp;Humidity;BMP_temperature;BMP_pressure;BME280_temperature;BME280_humidity;BME280_pressure;Samples;Min_cycle;Max_cycle;Signal;HPM_P1;HPM_P2
2022/10/05 00:01:30;;;;;;;9.30;6.13;;;7.90;99.90;;;7.61;100.00;99151.41;5081209;27;119458;-71
2022/10/05 00:04:10;;;;;;;11.75;6.43;;;7.90;99.90;;;7.56;100.00;99147.72;5066752;27;118653;-71
2022/10/05 00:06:39;;;;;;;10.00;6.43;;;7.90;99.90;;;7.55;100.00;99145.31;5048727;27;128765;-74
2022/10/05 00:09:16;;;;;;;8.77;5.93;;;7.90;99.90;;;7.50;100.00;99151.59;5045569;27;130119;-73
2022/10/05 00:11:45;;;;;;;9.50;5.85;;;7.90;99.90;;;7.54;100.00;99149.91;5061136;27;120045;-73
2022/10/05 00:14:20;;;;;;;8.80;5.97;;;7.90;99.90;;;7.54;100.00;99166.13;5046651;27;118345;-73
2022/10/05 00:16:49;;;;;;;10.38;6.32;;;7.90;99.90;;;7.60;100.00;99174.13;5060165;27;130173;-72
2022/10/05 00:19:25;;;;;;;10.73;6.38;;;7.90;99.90;;;7.66;100.00;99165.59;5060099;27;129368;-70
2022/10/05 00:21:58;;;;;;;8.85;5.93;;;7.90;99.90;;;7.65;100.00;99161.31;5044291;27;120865;-74
2022/10/05 00:24:27;;;;;;;9.55;5.90;;;7.90;99.90;;;7.70;100.00;99163.13;5060354;27;122241;-71
2022/10/05 00:26:55;;;;;;;11.40;6.75;;;7.90;99.90;;;7.68;100.00;99154.50;5041584;27;130475;-73
2022/10/05 00:29:26;;;;;;;11.13;6.53;;;7.90;99.90;;;7.69;100.00;99150.72;5028131;27;129545;-72
2022/10/05 00:31:54;;;;;;;8.90;6.00;;;7.90;99.90;;;7.63;100.00;99151.91;5046551;27;119822;-72
2022/10/05 00:34:26;;;;;;;9.82;6.13;;;7.90;99.90;;;7.67;100.00;99153.72;5045689;27;119440;-72
2022/10/05 00:36:54;;;;;;;9.45;5.95;;;8.00;99.90;;;7.70;100.00;99163.13;5048616;27;128580;-72
2022/10/05 00:39:23;;;;;;;10.88;6.97;;;7.90;99.90;;;7.68;100.00;99171.53;5045616;27;130899;-73
2022/10/05 00:42:27;;;;;;;9.25;6.10;;;7.90;99.90;;;7.68;100.00;99173.41;5049239;27;118533;-72
2022/10/05 00:45:05;;;;;;;13.27;6.63;;;7.90;99.90;;;7.72;100.00;99163.63;5065180;27;119693;-71
2022/10/05 00:47:51;;;;;;;8.52;6.75;;;7.90;99.90;;;7.72;100.00;99177.13;5063115;27;129995;-72
2022/10/05 00:50:52;;;;;;;12.13;6.32;;;7.90;99.90;;;7.64;100.00;99172.44;5062240;27;129257;-72
2022/10/05 00:53:38;;;;;;;8.80;6.20;;;7.90;99.90;;;7.65;100.00;99176.72;5063526;27;119607;-70
2022/10/05 00:56:21;;;;;;;11.02;6.43;;;7.90;99.90;;;7.64;100.00;99169.72;5048217;27;119132;-73
2022/10/05 00:59:08;;;;;;;10.15;6.90;;;7.90;99.90;;;7.61;100.00;99173.03;5063367;27;130725;-71
2022/10/05 01:01:44;;;;;;;;;;;7.90;99.90;;;7.56;100.00;99177.41;5063553;27;129546;-72
2022/10/05 01:04:20;;;;;;;11.32;7.05;;;7.80;99.90;;;7.54;100.00;99179.63;5045471;27;119622;-70
2022/10/05 01:06:59;;;;;;;;;;;7.80;99.90;;;7.47;100.00;99187.31;5049526;27;117974;-76
2022/10/05 01:09:40;;;;;;;8.73;6.25;;;7.80;99.90;;;7.48;100.00;99194.31;5063901;27;130354;-75
2022/10/05 01:12:20;;;;;;;10.52;6.95;;;7.80;99.90;;;7.47;100.00;99192.69;5061720;27;130049;-73
2022/10/05 01:14:59;;;;;;;14.25;7.18;;;7.80;99.90;;;7.57;100.00;99202.50;5047955;27;102641;-72
2022/10/05 01:17:38;;;;;;;9.15;6.72;;;7.80;99.90;;;7.61;100.00;99202.72;5063135;27;122274;-73
2022/10/05 01:20:39;;;;;;;9.63;6.45;;;7.80;99.90;;;7.60;100.00;99211.94;5061962;27;131400;-72
2022/10/05 01:24:14;;;;;;;10.88;6.60;;;7.80;99.90;;;7.60;100.00;99206.53;5063087;27;129957;-72
2022/10/05 01:27:07;;;;;;;10.07;6.60;;;7.90;99.90;;;7.64;100.00;99207.53;5030853;27;119715;-72
2022/10/05 01:29:44;;;;;;;10.45;6.43;;;7.90;99.90;;;7.65;100.00;99219.91;5044814;27;119576;-72
2022/10/05 01:32:24;;;;;;;9.00;6.43;;;7.80;99.90;;;7.66;100.00;99219.63;5062797;27;130016;-73
2022/10/05 01:35:06;;;;;;;10.60;6.80;;;7.80;99.90;;;7.65;100.00;99219.91;5047648;27;128558;-71
2022/10/05 01:37:47;;;;;;;9.25;6.18;;;7.80;99.90;;;7.65;100.00;99218.03;5061506;27;119565;-71
2022/10/05 01:40:28;;;;;;;11.05;5.75;;;7.90;99.90;;;7.71;100.00;99224.13;5047836;27;118919;-71
2022/10/05 01:43:08;;;;;;;11.05;5.57;;;7.90;99.90;;;7.71;100.00;99224.94;5042659;27;130251;-72
2022/10/05 01:45:50;;;;;;;9.52;6.13;;;7.90;99.90;;;7.74;100.00;99218.13;5064944;27;131986;-73
2022/10/05 01:48:29;;;;;;;10.45;6.05;;;7.90;99.90;;;7.80;100.00;99227.75;5044447;27;119515;-71
2022/10/05 01:51:11;;;;;;;9.02;5.70;;;7.90;99.90;;;7.80;100.00;99227.75;5062654;27;119467;-73
2022/10/05 01:53:55;;;;;;;9.18;6.07;;;7.90;99.90;;;7.78;100.00;99224.53;5060879;27;129905;-73
2022/10/05 01:56:36;;;;;;;9.85;5.95;;;7.90;99.90;;;7.80;100.00;99233.16;5065372;27;129148;-72
2022/10/05 01:59:21;;;;;;;11.63;6.30;;;7.90;99.90;;;7.69;100.00;99229.03;5044743;27;120492;-70
2022/10/05 02:01:58;;;;;;;9.32;5.70;;;7.90;99.90;;;7.61;100.00;99229.75;5061967;27;119423;-73
2022/10/05 02:04:34;;;;;;;10.02;5.75;;;7.90;99.90;;;7.64;100.00;99238.03;5043939;27;130439;-72
2022/10/05 02:07:12;;;;;;;11.30;6.13;;;7.90;99.90;;;7.65;100.00;99239.66;5043905;27;130583;-72
2022/10/05 02:09:47;;;;;;;9.35;5.65;;;7.90;99.90;;;7.70;100.00;99246.84;5046120;27;121622;-72
2022/10/05 02:12:22;;;;;;;9.70;5.70;;;7.80;99.90;;;7.68;100.00;99252.56;5030268;27;120805;-74
2022/10/05 02:14:56;;;;;;;10.40;5.20;;;7.80;99.90;;;7.67;100.00;99266.38;5064220;27;129861;-75
2022/10/05 02:17:32;;;;;;;8.93;6.00;;;7.90;99.90;;;7.65;100.00;99268.53;5046949;27;129151;-70
2022/10/05 02:20:05;;;;;;;7.57;5.53;;;7.90;99.90;;;7.64;100.00;99267.75;5047395;27;120210;-72
2022/10/05 02:22:40;;;;;;;8.38;5.40;;;7.90;99.90;;;7.67;100.00;99272.56;5043748;27;119472;-72
2022/10/05 02:25:15;;;;;;;8.82;5.22;;;7.80;99.90;;;7.68;100.00;99273.34;5047128;27;129382;-74
2022/10/05 02:27:52;;;;;;;10.63;5.72;;;7.80;99.90;;;7.65;100.00;99279.34;5061182;27;129713;-73
2022/10/05 02:30:20;;;;;;;;;;;7.80;99.90;;;7.53;100.00;99291.44;5047463;27;118277;-73
2022/10/05 02:33:00;;;;;;;7.30;4.93;;;7.70;99.90;;;7.53;100.00;99304.94;5047051;27;118873;-73
2022/10/05 02:35:28;;;;;;;10.43;6.10;;;7.70;99.90;;;7.56;100.00;99308.94;5059121;27;129960;-73
2022/10/05 02:38:09;;;;;;;10.32;5.75;;;7.70;99.90;;;7.55;100.00;99308.13;5061633;27;129343;-72
2022/10/05 02:40:49;;;;;;;8.20;5.10;;;7.70;99.90;;;7.63;100.00;99308.56;5060428;27;120371;-72
2022/10/05 02:43:30;;;;;;;8.52;6.07;;;7.70;99.90;;;7.63;100.00;99313.97;5063894;27;120042;-71
2022/10/05 02:46:12;;;;;;;8.27;5.25;;;7.70;99.90;;;7.62;100.00;99302.38;5043176;27;129882;-71
2022/10/05 02:48:53;;;;;;;9.52;4.95;;;7.70;99.90;;;7.64;100.00;99310.16;5029578;27;129121;-71
2022/10/05 02:51:27;;;;;;;8.45;5.93;;;7.70;99.90;;;7.64;100.00;99304.78;5043448;27;120127;-70
2022/10/05 02:54:11;;;;;;;9.73;5.60;;;7.70;99.90;;;7.61;100.00;99308.06;5043699;27;119744;-71
2022/10/05 02:56:54;;;;;;;8.45;5.70;;;7.70;99.90;;;7.64;100.00;99307.47;5044893;27;130567;-70
2022/10/05 02:59:34;;;;;;;8.30;5.32;;;7.70;99.90;;;7.61;100.00;99297.25;5042878;27;129809;-71
2022/10/05 03:02:14;;;;;;;9.35;5.45;;;7.70;99.90;;;7.66;100.00;99297.94;5044882;27;122796;-71
2022/10/05 03:04:58;;;;;;;8.70;5.57;;;7.70;99.90;;;7.73;100.00;99303.78;5061549;27;122397;-70
2022/10/05 03:07:33;;;;;;;8.70;5.18;;;7.80;99.90;;;7.69;100.00;99296.56;5042780;27;130495;-71
2022/10/05 03:10:12;;;;;;;9.68;5.63;;;7.80;99.90;;;7.73;100.00;99286.78;5028856;27;128670;-70
2022/10/05 03:12:52;;;;;;;8.80;5.95;;;7.80;99.90;;;7.69;100.00;99301.97;5060226;27;119681;-75
2022/10/05 03:15:51;;;;;;;9.00;5.38;;;7.90;99.90;;;7.69;100.00;99308.16;5045960;27;119050;-73
2022/10/05 03:18:34;;;;;;;8.50;5.80;;;7.90;99.90;;;7.80;100.00;99291.78;5062585;27;131108;-72
2022/10/05 03:21:21;;;;;;;8.43;5.45;;;7.90;99.90;;;7.83;100.00;99297.38;5059998;27;130231;-70
2022/10/05 03:24:02;;;;;;;;;;;7.90;99.90;;;7.80;100.00;99292.59;5059964;27;120006;-74
2022/10/05 03:26:43;;;;;;;8.80;5.68;;;8.00;99.90;;;7.79;100.00;99291.00;5046037;27;118231;-71
2022/10/05 03:29:28;;;;;;;11.27;6.07;;;8.00;99.90;;;7.83;100.00;99302.00;5058413;27;130458;-73
2022/10/05 03:32:09;;;;;;;14.52;7.10;;;8.00;99.90;;;7.80;100.00;99302.59;5059430;27;129819;-73
2022/10/05 03:34:46;;;;;;;11.32;5.78;;;8.00;99.90;;;7.85;100.00;99297.91;5045815;27;119001;-72
2022/10/05 03:37:27;;;;;;;9.85;5.93;;;8.10;99.90;;;7.86;100.00;99304.91;5042663;27;119348;-72
2022/10/05 03:40:06;;;;;;;11.75;5.85;;;8.10;99.90;;;7.95;100.00;99309.59;5042018;27;129635;-72
2022/10/05 03:42:52;;;;;;;9.75;5.95;;;8.00;99.90;;;7.95;100.00;99299.63;5060008;27;129105;-73
2022/10/05 03:45:28;;;;;;;8.45;5.38;;;8.10;99.90;;;8.01;100.00;99303.00;5059800;27;119575;-73
2022/10/05 03:48:08;;;;;;;9.88;5.60;;;8.10;99.90;;;7.97;100.00;99318.22;5042224;27;120023;-72
2022/10/05 03:50:50;;;;;;;6.70;4.82;;;8.10;99.90;;;8.00;100.00;99318.44;5027562;27;129176;-71
2022/10/05 03:53:23;;;;;;;8.15;5.13;;;8.10;99.90;;;8.09;100.00;99316.63;5041594;27;130198;-75
2022/10/05 03:55:59;;;;;;;12.30;5.38;;;8.10;99.90;;;8.17;100.00;99311.66;5059277;27;121926;-73
2022/10/05 03:58:35;;;;;;;9.85;4.80;;;8.10;99.90;;;8.15;100.00;99316.53;5028658;27;122084;-72
2022/10/05 04:01:12;;;;;;;8.23;4.95;;;8.00;99.90;;;8.15;100.00;99320.06;5040812;27;129960;-72
2022/10/05 04:03:47;;;;;;;8.93;6.20;;;8.00;99.90;;;8.18;100.00;99327.56;5041930;27;129928;-73
2022/10/05 04:06:22;;;;;;;9.32;5.53;;;8.00;99.90;;;8.13;100.00;99329.56;5044928;27;119549;-71
2022/10/05 04:08:59;;;;;;;9.27;5.20;;;8.00;99.90;;;8.08;100.00;99320.44;5041787;27;119963;-72
2022/10/05 04:11:35;;;;;;;9.93;5.95;;;8.00;99.90;;;8.08;100.00;99325.84;5028294;27;129262;-72
2022/10/05 04:14:09;;;;;;;9.55;5.00;;;8.00;99.90;;;8.13;100.00;99333.06;5042113;27;129547;-70
2022/10/05 04:16:44;;;;;;;8.63;5.50;;;8.00;99.90;;;8.06;100.00;99316.44;5042264;27;119861;-71
2022/10/05 04:19:19;;;;;;;8.57;6.15;;;8.00;99.90;;;8.19;100.00;99315.63;5045757;27;121158;-70
2022/10/05 04:21:52;;;;;;;9.55;5.57;;;8.00;99.90;;;8.16;100.00;99324.34;5043776;27;130008;-70
2022/10/05 04:24:32;;;;;;;9.88;6.07;;;8.00;99.90;;;8.20;100.00;99322.66;5041728;27;130088;-70
2022/10/05 04:27:09;;;;;;;8.13;5.45;;;8.00;99.90;;;8.25;100.00;99340.69;5045169;27;119319;-70
2022/10/05 04:29:41;;;;;;;;;;;8.00;99.90;;;8.21;100.00;99345.91;5042094;27;119287;-70
2022/10/05 04:32:30;;;;;;;9.40;6.30;;;8.00;99.90;;;8.17;100.00;99344.88;5059805;27;130274;-70
2022/10/05 04:35:57;;;;;;;11.65;6.03;;;8.00;99.90;;;8.09;100.00;99350.97;5041360;27;129750;-70
2022/10/05 04:38:45;;;;;;;9.38;5.70;;;8.00;99.90;;;8.16;100.00;99354.06;5029834;27;119029;-70
2022/10/05 04:41:34;;;;;;;11.82;5.80;;;8.00;99.90;;;8.21;100.00;99351.31;5028852;27;118596;-70
2022/10/05 04:44:23;;;;;;;10.43;5.97;;;8.10;99.90;;;8.31;100.00;99365.72;5027638;27;129911;-70
2022/10/05 04:47:14;;;;;;;10.30;4.90;;;8.10;99.90;;;8.31;100.00;99371.13;5044691;27;129293;-70
2022/10/05 04:50:11;;;;;;;8.57;5.30;;;8.10;99.90;;;8.35;100.00;99377.53;5043572;27;121768;-70
2022/10/05 04:53:00;;;;;;;9.27;5.28;;;8.10;99.90;;;8.30;100.00;99383.03;5060157;27;122298;-70
2022/10/05 04:55:38;;;;;;;8.68;5.88;;;8.10;99.90;;;8.27;100.00;99377.16;5044391;27;129794;-70
2022/10/05 04:58:24;;;;;;;8.45;4.93;;;8.10;99.90;;;8.28;100.00;99384.13;5041140;27;129616;-70
2022/10/05 05:01:08;;;;;;;8.13;5.17;;;8.20;99.90;;;8.35;100.00;99383.75;5044904;27;119406;-69
2022/10/05 05:04:09;;;;;;;10.50;5.47;;;8.20;99.90;;;8.39;100.00;99379.34;5044453;27;118494;-70
2022/10/05 05:06:47;;;;;;;9.88;4.85;;;8.20;99.90;;;8.52;100.00;99394.00;5040567;27;129414;-70
2022/10/05 05:09:57;;;;;;;7.20;5.10;;;8.30;99.90;;;8.52;100.00;99398.59;5038340;27;129975;-69
2022/10/05 05:12:41;;;;;;;8.95;5.50;;;8.30;99.90;;;8.56;100.00;99389.59;5041701;27;119690;-70
2022/10/05 05:15:42;;;;;;;7.80;5.10;;;8.30;99.90;;;8.52;100.00;99398.59;5037771;27;119795;-70
2022/10/05 05:19:01;;;;;;;8.95;5.10;;;8.30;99.90;;;8.57;100.00;99396.63;5040164;27;130199;-70
2022/10/05 05:21:42;;;;;;;8.57;4.10;;;8.30;99.90;;;8.70;100.00;99383.38;5003438;27;129646;-70
2022/10/05 05:24:21;;;;;;;6.78;4.45;;;8.40;99.90;;;8.72;100.00;99392.78;5044630;27;119290;-69
2022/10/05 05:27:10;;;;;;;6.78;5.07;;;8.50;99.90;;;8.78;100.00;99393.50;5044414;27;119477;-70
2022/10/05 05:29:52;;;;;;;7.30;3.55;;;8.50;99.90;;;8.74;100.00;99389.78;5041254;27;130302;-70
2022/10/05 05:32:39;;;;;;;6.07;3.50;;;8.50;99.90;;;8.80;100.00;99380.47;5042493;27;129380;-70
2022/10/05 05:35:39;;;;;;;7.47;3.75;;;8.50;99.90;;;8.90;100.00;99391.09;5040840;27;119504;-70
2022/10/05 05:38:24;;;;;;;6.45;3.65;;;8.50;99.90;;;8.92;100.00;99386.16;5044797;27;119317;-70
2022/10/05 05:41:06;;;;;;;6.97;3.75;;;8.60;99.90;;;8.91;100.00;99390.00;5040946;27;130046;-72
2022/10/05 05:43:50;;;;;;;6.25;3.80;;;8.60;99.90;;;8.92;100.00;99390.78;5044178;27;129134;-70
2022/10/05 05:46:26;;;;;;;6.40;3.40;;;8.60;99.90;;;8.96;100.00;99381.75;5040076;27;121918;-70
2022/10/05 05:48:58;;;;;;;8.03;3.47;;;8.60;99.90;;;9.06;100.00;99390.75;5044489;27;121220;-72
2022/10/05 05:51:33;;;;;;;6.20;3.40;;;8.70;99.90;;;9.08;100.00;99389.34;5040660;27;129775;-71
2022/10/05 05:54:24;;;;;;;5.70;3.47;;;8.70;99.90;;;9.12;100.00;99397.66;5040159;27;129439;-71
2022/10/05 05:57:03;;;;;;;7.20;3.20;;;8.80;99.90;;;9.16;100.00;99395.94;5040901;27;119944;-69
2022/10/05 05:59:45;;;;;;;9.73;7.47;;;8.80;99.90;;;9.16;100.00;99391.34;5043935;27;119218;-69
2022/10/05 06:02:19;;;;;;;8.77;4.15;;;8.70;99.90;;;9.27;100.00;99397.34;5040482;27;129653;-70
2022/10/05 06:04:56;;;;;;;6.57;4.65;;;8.90;99.90;;;9.25;100.00;99398.72;5026302;27;131324;-70
2022/10/05 06:07:30;;;;;;;8.45;3.80;;;8.80;99.90;;;9.09;100.00;99401.78;5040673;27;119512;-71
2022/10/05 06:10:13;;;;;;;8.90;4.72;;;8.80;99.90;;;9.19;100.00;99417.00;5043905;27;119512;-70
2022/10/05 06:12:51;;;;;;;7.70;5.65;;;8.90;99.90;;;9.42;100.00;99422.47;5038859;27;129775;-70
2022/10/05 06:15:32;;;;;;;11.13;4.65;;;9.00;99.90;;;9.52;100.00;99419.50;5043065;27;129270;-71
2022/10/05 06:18:10;;;;;;;8.52;4.60;;;9.10;99.90;;;9.51;100.00;99418.72;5040472;27;119733;-70
2022/10/05 06:20:46;;;;;;;11.90;4.32;;;9.00;99.90;;;9.41;100.00;99420.84;5041447;27;119357;-71
2022/10/05 06:23:20;;;;;;;7.35;4.25;;;9.00;99.90;;;9.40;100.00;99427.41;5043434;27;128835;-71
2022/10/05 06:26:12;;;;;;;9.25;4.13;;;9.00;99.90;;;9.48;100.00;99434.78;5043319;27;129729;-71
2022/10/05 06:28:42;;;;;;;8.30;4.50;;;9.10;99.90;;;9.61;100.00;99438.56;5040747;27;120231;-73
2022/10/05 06:31:29;;;;;;;8.30;4.80;;;9.10;99.90;;;9.57;100.00;99424.00;5043814;27;119834;-71
2022/10/05 06:34:17;;;;;;;11.65;4.65;;;9.10;99.90;;;9.70;100.00;99429.38;5039855;27;130443;-71
2022/10/05 06:36:53;;;;;;;8.07;4.67;;;9.20;99.90;;;9.84;100.00;99433.97;5043124;27;129396;-71
2022/10/05 06:39:56;;;;;;;6.97;4.10;;;9.20;99.90;;;9.86;100.00;99429.00;5025141;27;121064;-71
2022/10/05 06:42:49;;;;;;;8.02;4.47;;;9.20;99.90;;;9.98;100.00;99437.41;5026274;27;120850;-72
2022/10/05 06:45:28;;;;;;;6.97;3.90;;;9.30;99.90;;;9.87;100.00;99441.47;5041017;27;130643;-71
2022/10/05 06:48:22;;;;;;;7.43;3.90;;;9.10;99.90;;;10.07;100.00;99434.75;5043042;27;128696;-71
2022/10/05 06:51:22;;;;;;;9.82;4.47;;;9.30;99.90;;;10.14;100.00;99435.09;5039642;27;119599;-70
2022/10/05 06:54:27;;;;;;;7.32;4.00;;;9.20;99.90;;;10.03;100.00;99433.75;5022907;28;119061;-72
2022/10/05 06:57:05;;;;;;;6.03;3.13;;;9.40;99.90;;;10.22;100.00;99447.09;5038948;27;129962;-74
2022/10/05 06:59:44;;;;;;;6.20;3.67;;;9.40;99.90;;;10.43;100.00;99442.00;5043129;27;129202;-73
2022/10/05 07:02:25;;;;;;;7.32;3.10;;;9.60;99.90;;;10.27;100.00;99455.13;5041117;27;119556;-75
2022/10/05 07:05:33;;;;;;;6.78;3.63;;;9.50;99.90;;;10.10;100.00;99444.97;5047020;27;118606;-71
2022/10/05 07:08:09;;;;;;;7.90;3.83;;;9.40;99.90;;;10.02;100.00;99451.94;5027818;27;129872;-72
2022/10/05 07:11:00;;;;;;;9.18;4.10;;;9.40;99.90;;;10.21;100.00;99453.66;5062760;27;129781;-70
2022/10/05 07:13:56;;;;;;;9.25;3.95;;;9.50;99.90;;;10.27;100.00;99466.00;5059877;27;119827;-72
2022/10/05 07:16:39;;;;;;;6.40;4.07;;;9.50;99.90;;;10.31;100.00;99466.94;5060030;27;119522;-71
2022/10/05 07:19:31;;;;;;;8.00;4.75;;;9.50;99.90;;;10.33;100.00;99469.38;5059740;27;130677;-73
2022/10/05 07:22:28;;;;;;;7.10;3.92;;;9.60;99.90;;;10.30;100.00;99470.78;5062855;27;130508;-73
2022/10/05 07:25:04;;;;;;;7.68;3.58;;;9.70;99.90;;;10.36;100.00;99480.44;5059526;27;119722;-72
2022/10/05 07:27:39;;;;;;;7.57;3.08;;;9.70;99.90;;;10.32;100.00;99484.03;5059927;27;119807;-74
2022/10/05 07:30:12;;;;;;;5.60;2.97;;;9.70;99.90;;;10.33;100.00;99486.47;5062582;27;131058;-73
2022/10/05 07:32:58;;;;;;;6.68;3.65;;;9.70;99.90;;;10.36;100.00;99482.31;5062645;27;129700;-73
2022/10/05 07:38:39;;;;;;;6.68;3.13;;;9.80;99.90;;;10.41;100.00;99490.34;5076464;27;121751;-74
2022/10/05 07:41:18;;;;;;;5.07;2.78;;;9.80;99.90;;;10.58;100.00;99492.34;5062015;27;129548;-72
2022/10/05 07:43:56;;;;;;;5.05;2.78;;;9.90;99.90;;;10.51;100.00;99486.56;5059075;27;129198;-72
2022/10/05 07:46:34;;;;;;;5.88;2.45;;;9.80;99.90;;;10.47;100.00;99499.16;5059805;27;119711;-73
2022/10/05 07:49:15;;;;;;;4.65;2.63;;;9.90;99.90;;;10.68;100.00;99502.94;5051959;27;119520;-74
2022/10/05 07:51:50;;;;;;;5.95;2.72;;;10.00;99.90;;;10.77;100.00;99498.34;5038370;27;130445;-72
2022/10/05 07:54:25;;;;;;;5.50;3.05;;;10.00;99.90;;;10.99;100.00;99485.03;5042052;27;128798;-72
2022/10/05 07:57:02;;;;;;;4.72;2.72;;;10.20;99.90;;;11.39;100.00;99488.50;5039880;27;120137;-69
2022/10/05 07:59:39;;;;;;;;;;;10.50;99.90;;;11.63;100.00;99487.25;5042248;27;119705;-70
2022/10/05 08:02:22;;;;;;;5.88;3.00;;;10.70;99.90;;;11.75;100.00;99501.00;5037227;27;130862;-72
2022/10/05 08:05:00;;;;;;;5.78;2.85;;;10.70;99.90;;;11.70;100.00;99492.97;5044222;27;129434;-72
2022/10/05 08:07:31;;;;;;;4.38;2.35;;;10.60;99.90;;;11.66;100.00;99498.25;5060434;27;119528;-72
2022/10/05 08:10:16;;;;;;;5.18;3.03;;;10.60;99.90;;;11.43;100.00;99488.66;5062499;27;118622;-71
2022/10/05 08:13:02;;;;;;;7.28;3.05;;;10.50;99.90;;;11.45;100.00;99492.66;5060235;27;130374;-71
2022/10/05 08:15:37;;;;;;;6.90;2.63;;;10.40;99.90;;;11.18;100.00;99490.19;5061920;27;131334;-72
2022/10/05 08:18:16;;;;;;;6.25;3.10;;;10.30;99.90;;;11.06;100.00;99499.72;5060310;27;119262;-72
2022/10/05 08:20:48;;;;;;;6.45;3.33;;;10.30;99.90;;;11.03;100.00;99497.66;5060664;27;119841;-72
2022/10/05 08:23:24;;;;;;;5.57;3.50;;;10.30;99.90;;;11.06;100.00;99501.66;5059841;27;130846;-73
2022/10/05 08:26:13;;;;;;;7.32;2.80;;;10.30;99.90;;;10.97;100.00;99499.72;5059857;27;129421;-71
2022/10/05 08:28:50;;;;;;;5.75;2.67;;;10.30;99.90;;;10.97;100.00;99496.22;5058635;27;122073;-72
2022/10/05 08:31:26;;;;;;;5.60;2.70;;;10.20;99.90;;;10.96;100.00;99491.88;5060342;27;122771;-71
2022/10/05 08:34:06;;;;;;;6.05;3.00;;;10.30;99.90;;;11.11;100.00;99499.59;5061886;27;129149;-72
2022/10/05 08:36:54;;;;;;;5.18;3.20;;;10.40;99.90;;;11.13;100.00;99494.66;5059706;27;129637;-71
2022/10/05 08:39:28;;;;;;;5.50;3.10;;;10.50;99.90;;;11.33;100.00;99500.63;5060098;27;119518;-72
2022/10/05 08:42:58;;;;;;;4.35;2.58;;;10.60;99.90;;;11.32;100.00;99501.72;5060279;27;119798;-70
2022/10/05 08:46:16;;;;;;;5.97;2.80;;;10.70;99.90;;;11.49;100.00;99481.94;5059731;27;129881;-71
2022/10/05 08:49:43;;;;;;;6.72;3.05;;;10.70;99.90;;;11.48;100.00;99497.47;5060228;27;130123;-72
2022/10/05 08:52:27;;;;;;;7.32;3.45;;;10.70;99.90;;;11.49;100.00;99499.03;5059957;27;119725;-70
2022/10/05 08:55:29;;;;;;;4.88;2.60;;;10.70;99.90;;;11.47;100.00;99495.84;5063661;27;119577;-70
2022/10/05 08:58:50;;;;;;;6.28;3.22;;;10.70;99.90;;;11.62;100.00;99502.72;5061824;27;129586;-71
2022/10/05 09:01:31;;;;;;;6.18;2.92;;;10.80;97.70;;;11.67;100.00;99496.34;5065869;27;129559;-72
2022/10/05 09:04:33;;;;;;;5.55;3.15;;;10.80;93.80;;;11.74;100.00;99499.38;5063351;27;119447;-71
2022/10/05 09:07:48;;;;;;;6.18;2.80;;;10.80;97.40;;;11.80;100.00;99498.13;5063147;27;119423;-71
2022/10/05 09:11:06;;;;;;;5.35;2.70;;;10.90;96.80;;;11.75;100.00;99490.13;5063282;27;130462;-71
2022/10/05 09:14:16;;;;;;;7.47;2.97;;;10.90;94.50;;;11.82;100.00;99495.88;5063058;27;129567;-70
2022/10/05 09:16:58;;;;;;;6.65;2.80;;;10.90;90.00;;;11.92;100.00;99496.66;5034710;27;119054;-70
2022/10/05 09:20:00;;;;;;;8.95;2.83;;;10.90;90.10;;;12.08;100.00;99497.03;5063346;27;119805;-71
2022/10/05 09:23:01;;;;;;;4.05;2.55;;;11.10;68.00;;;12.38;99.50;99500.66;5047583;27;130181;-70
2022/10/05 09:25:57;;;;;;;4.07;2.30;;;11.20;55.80;;;12.44;98.69;99504.81;5062709;27;129631;-70
2022/10/05 09:28:37;;;;;;;4.97;2.30;;;11.20;53.90;;;12.60;99.02;99502.34;5061669;27;121793;-71
2022/10/05 09:31:34;;;;;;;5.00;2.30;;;11.50;52.20;;;12.57;95.23;99509.28;5063012;27;122361;-71
2022/10/05 09:34:50;;;;;;;8.52;2.55;;;11.30;25.40;;;12.51;96.69;99507.03;5062418;27;129964;-71
2022/10/05 09:38:07;;;;;;;4.97;2.38;;;11.50;29.80;;;12.50;95.18;99503.50;5065046;27;129553;-71
2022/10/05 09:41:40;;;;;;;5.85;3.05;;;11.30;20.70;;;12.52;95.68;99512.16;5059327;27;120379;-72
2022/10/05 09:44:49;;;;;;;4.75;2.50;;;11.40;22.20;;;12.48;96.54;99508.50;4966442;28;118528;-71
2022/10/05 09:48:04;;;;;;;5.13;2.70;;;11.50;22.70;;;12.59;96.50;99508.94;4982298;28;130500;-72
2022/10/05 09:51:11;;;;;;;6.50;3.10;;;11.50;26.20;;;12.45;96.33;99511.84;4979862;28;129864;-71
2022/10/05 09:54:28;;;;;;;6.40;2.72;;;11.30;26.10;;;12.53;96.76;99508.31;4983046;28;118947;-72
2022/10/05 09:58:06;;;;;;;4.30;2.70;;;11.40;27.20;;;12.54;96.08;99507.19;4957894;28;119293;-72
2022/10/05 10:01:15;;;;;;;5.75;2.90;;;11.50;20.90;;;12.64;93.63;99513.41;4920376;28;130260;-71
2022/10/05 10:04:23;;;;;;;5.97;2.75;;;11.40;15.40;;;12.95;92.30;99516.66;4949517;28;129740;-72
2022/10/05 10:07:36;;;;;;;7.30;2.60;;;11.60;8.60;;;13.05;90.66;99506.53;4979281;28;119293;-73
2022/10/05 10:10:54;;;;;;;4.75;2.42;;;11.60;6.20;;;13.23;90.02;99507.22;4979360;28;119754;-72
2022/10/05 10:14:04;;;;;;;9.55;4.60;;;11.90;1.00;;;13.77;89.57;99501.13;4955372;28;130485;-72
2022/10/05 10:17:07;;;;;;;4.10;1.90;;;12.40;1.00;;;14.09;87.27;99493.34;4978863;28;129755;-72
2022/10/05 10:20:13;;;;;;;3.95;2.15;;;12.60;1.00;;;14.09;84.77;99498.81;5044167;27;120319;-73
2022/10/05 10:23:16;;;;;;;7.40;2.50;;;12.60;1.00;;;14.39;85.22;99500.25;5062994;27;119490;-72
2022/10/05 10:26:42;;;;;;;4.68;2.30;;;13.00;1.00;;;14.58;82.76;99493.47;5060205;27;130184;-72
2022/10/05 10:29:58;;;;;;;4.72;2.08;;;12.80;1.00;;;14.53;81.11;99494.50;5058861;27;130106;-72
2022/10/05 10:33:03;;;;;;;8.93;2.10;;;12.90;1.00;;;14.78;81.65;99499.25;5060757;27;122604;-71
2022/10/05 10:35:35;;;;;;;5.25;3.00;;;13.00;1.00;;;14.77;81.35;99503.09;5061737;27;121848;-71
2022/10/05 10:38:49;;;;;;;3.85;2.30;;;13.00;1.00;;;14.49;81.58;99517.34;5047129;27;129652;-73
2022/10/05 10:42:04;;;;;;;4.88;2.70;;;12.40;1.00;;;13.95;83.51;99532.63;5041005;27;129810;-72
2022/10/05 10:45:19;;;;;;;4.80;2.72;;;12.10;1.00;;;13.52;86.82;99522.81;5041161;27;119946;-73
2022/10/05 10:47:53;;;;;;;6.43;2.95;;;11.90;1.00;;;13.43;88.40;99522.06;5041104;27;120175;-71
2022/10/05 10:50:56;;;;;;;6.28;2.20;;;12.00;1.00;;;13.53;88.75;99527.13;5040838;27;130800;-72
2022/10/05 10:53:46;;;;;;;8.05;3.05;;;12.10;1.00;;;13.40;89.31;99539.06;5041104;27;129513;-72
2022/10/05 10:56:32;;;;;;;7.45;3.20;;;12.10;1.00;;;13.21;90.26;99523.91;5041138;27;120111;-72
2022/10/05 10:59:36;;;;;;;7.35;2.47;;;12.00;1.00;;;13.01;91.60;99527.38;5049304;27;120017;-71
2022/10/05 11:02:41;;;;;;;5.32;2.42;;;11.90;1.00;;;13.10;91.67;99525.41;5059844;27;130408;-72
2022/10/05 11:05:51;;;;;;;8.30;2.70;;;12.00;1.00;;;13.35;90.75;99522.91;5040490;27;129132;-72
2022/10/05 11:09:08;;;;;;;4.05;2.15;;;12.30;1.00;;;13.57;89.90;99522.63;5052894;27;120032;-72
2022/10/05 11:12:21;;;;;;;7.75;2.53;;;12.30;1.00;;;13.70;88.93;99518.03;5061292;27;119572;-72
2022/10/05 11:15:27;;;;;;;5.75;2.50;;;12.40;1.00;;;13.65;88.80;99519.03;5060944;27;129893;-74
2022/10/05 11:18:10;;;;;;;9.43;2.60;;;12.50;1.00;;;13.80;88.48;99530.47;5018082;27;129402;-72
2022/10/05 11:21:19;;;;;;;7.93;2.50;;;12.50;1.00;;;13.84;87.60;99525.97;5060957;27;120355;-72
2022/10/05 11:24:50;;;;;;;4.43;2.40;;;12.60;1.00;;;13.45;88.13;99528.00;5036088;27;120703;-73
2022/10/05 11:28:01;;;;;;;6.40;2.22;;;12.30;1.00;;;13.53;88.50;99532.59;5045589;27;129834;-73
2022/10/05 11:31:02;;;;;;;6.88;3.25;;;12.50;1.00;;;13.64;88.09;99513.91;5060521;27;129527;-71
2022/10/05 11:34:19;;;;;;;5.85;2.35;;;12.60;1.00;;;13.78;86.87;99510.94;5060133;27;121996;-73
2022/10/05 11:37:30;;;;;;;6.40;2.78;;;12.40;1.00;;;13.83;87.89;99491.63;5035190;27;121983;-73
2022/10/05 11:40:33;;;;;;;6.38;2.50;;;12.70;1.00;;;14.21;86.08;99490.66;5039954;27;130898;-72
2022/10/05 11:43:56;;;;;;;5.03;2.38;;;13.00;1.00;;;14.50;85.30;99491.66;5039910;27;130200;-73
2022/10/05 11:46:33;;;;;;;6.20;2.85;;;13.10;1.00;;;14.60;82.52;99480.34;5005163;27;120755;-73